createdAt,value
2022-12-27T00:01:53.369Z,98638.06
2022-12-27T00:04:20.136Z,98635.72
2022-12-27T00:06:47.308Z,98641.13
2022-12-27T00:09:14.027Z,98639.28
2022-12-27T00:11:41.156Z,98633.03
2022-12-27T00:14:07.917Z,98621.50
2022-12-27T00:16:34.991Z,98608.94
2022-12-27T00:19:01.861Z,98607.09
2022-12-27T00:21:28.973Z,98596.22
2022-12-27T00:23:56.502Z,98606.25
2022-12-27T00:26:26.493Z,98592.91
2022-12-27T00:28:53.508Z,98596.34
2022-12-27T00:31:21.400Z,98602.69
2022-12-27T00:33:49.563Z,98603.66
2022-12-27T00:36:18.732Z,98600.97
2022-12-27T00:38:45.554Z,98617.00
2022-12-27T00:41:12.631Z,98621.88
2022-12-27T00:43:39.454Z,98613.91
2022-12-27T00:46:06.824Z,98626.28
2022-12-27T00:48:33.823Z,98616.63
2022-12-27T00:51:03.330Z,98618.19
2022-12-27T00:53:30.277Z,98607.25
2022-12-27T00:55:57.424Z,98601.44
2022-12-27T00:58:24.414Z,98596.69
2022-12-27T01:00:51.589Z,98594.22
2022-12-27T01:03:18.754Z,98605.56
2022-12-27T01:05:45.985Z,98608.75
2022-12-27T01:08:12.761Z,98610.09
2022-12-27T01:10:40.633Z,98615.34
2022-12-27T01:13:07.691Z,98617.06
2022-12-27T01:15:34.728Z,98634.31
2022-12-27T01:18:01.451Z,98639.69
2022-12-27T01:20:28.452Z,98640.88
2022-12-27T01:22:55.360Z,98639.69
2022-12-27T01:25:22.390Z,98644.94
2022-12-27T01:27:49.117Z,98650.09
2022-12-27T01:30:16.122Z,98648.50
2022-12-27T01:32:42.874Z,98656.34
2022-12-27T01:35:09.908Z,98668.91
2022-12-27T01:37:36.691Z,98658.16
2022-12-27T01:40:04.057Z,98654.00
2022-12-27T01:42:49.378Z,98676.97
2022-12-27T01:45:19.581Z,98695.81
2022-12-27T01:47:51.188Z,98713.91
2022-12-27T01:50:27.529Z,98709.28
2022-12-27T01:53:19.345Z,98706.69
2022-12-27T01:56:02.314Z,98715.13
2022-12-27T01:58:36.479Z,98710.25
2022-12-27T02:01:10.321Z,98715.63
2022-12-27T02:03:58.317Z,98716.94
2022-12-27T02:06:25.796Z,98710.69
2022-12-27T02:09:03.187Z,98716.09
2022-12-27T02:11:50.443Z,98709.84
2022-12-27T02:14:31.225Z,98716.94
2022-12-27T02:16:59.167Z,98714.34
2022-12-27T02:19:41.263Z,98728.69
2022-12-27T02:22:14.206Z,98724.16
2022-12-27T02:24:50.252Z,98729.41
2022-12-27T02:27:35.519Z,98730.16
2022-12-27T02:30:04.472Z,98727.59
2022-12-27T02:32:45.656Z,98740.19
2022-12-27T02:35:23.456Z,98742.03
2022-12-27T02:38:15.716Z,98739.09
2022-12-27T02:41:01.267Z,98749.00
2022-12-27T02:43:46.975Z,98737.16
2022-12-27T02:46:40.664Z,98749.63
2022-12-27T02:50:01.993Z,98750.72
2022-12-27T02:53:05.313Z,98751.56
2022-12-27T02:56:28.476Z,98745.56
2022-12-27T02:59:05.981Z,98758.06
2022-12-27T03:01:57.586Z,98765.03
2022-12-27T03:04:42.142Z,98758.91
2022-12-27T03:07:26.232Z,98761.59
2022-12-27T03:10:40.863Z,98764.19
2022-12-27T03:13:38.579Z,98766.88
2022-12-27T03:16:23.555Z,98761.38
2022-12-27T03:19:12.594Z,98765.34
2022-12-27T03:22:03.666Z,98802.59
2022-12-27T03:24:53.848Z,98819.94
2022-12-27T03:28:08.894Z,98812.06
2022-12-27T03:30:55.017Z,98824.75
2022-12-27T03:33:22.364Z,98847.91
2022-12-27T03:36:11.320Z,98848.75
2022-12-27T03:38:43.520Z,98861.56
2022-12-27T03:41:30.278Z,98874.47
2022-12-27T03:43:57.047Z,98869.94
2022-12-27T03:46:36.671Z,98892.13
2022-12-27T03:49:30.283Z,98906.19
2022-12-27T03:52:11.070Z,98911.03
2022-12-27T03:54:39.170Z,98913.59
2022-12-27T03:57:11.558Z,98925.84
2022-12-27T03:59:38.559Z,98930.69
2022-12-27T04:02:05.956Z,98942.28
2022-12-27T04:04:32.760Z,98944.97
2022-12-27T04:06:59.886Z,98949.31
2022-12-27T04:09:45.202Z,98958.22
2022-12-27T04:12:30.899Z,98957.47
2022-12-27T04:15:16.257Z,98956.63
2022-12-27T04:18:01.900Z,98951.53
2022-12-27T04:20:47.212Z,98949.72
2022-12-27T04:23:32.891Z,98959.50
2022-12-27T04:26:18.334Z,98966.91
2022-12-27T04:29:03.943Z,98991.13
2022-12-27T04:31:49.459Z,98991.41
2022-12-27T04:34:34.795Z,99000.44
2022-12-27T04:37:01.571Z,99008.59
2022-12-27T04:39:28.599Z,99003.22
2022-12-27T04:42:13.980Z,98998.25
2022-12-27T04:44:59.642Z,98997.56
2022-12-27T04:47:45.023Z,98994.66
2022-12-27T04:50:42.869Z,98996.47
2022-12-27T04:53:36.333Z,99008.19
2022-12-27T04:56:04.080Z,99018.06
2022-12-27T04:58:30.902Z,99021.81
2022-12-27T05:01:18.606Z,99030.88
2022-12-27T05:03:46.045Z,99044.31
2022-12-27T05:06:13.241Z,99061.25
2022-12-27T05:08:59.199Z,99058.94
2022-12-27T05:11:44.783Z,99066.78
2022-12-27T05:14:13.674Z,99058.06
2022-12-27T05:16:42.206Z,99069.00
2022-12-27T05:19:11.018Z,99065.84
2022-12-27T05:22:02.027Z,99080.50
2022-12-27T05:24:48.518Z,99074.94
2022-12-27T05:27:15.864Z,99071.41
2022-12-27T05:29:42.583Z,99091.25
2022-12-27T05:32:13.352Z,99101.16
2022-12-27T05:34:41.057Z,99094.16
2022-12-27T05:37:08.219Z,99105.84
2022-12-27T05:39:35.095Z,99100.84
2022-12-27T05:42:02.299Z,99112.47
2022-12-27T05:44:29.094Z,99122.25
2022-12-27T05:46:56.155Z,99125.69
2022-12-27T05:49:22.971Z,99137.41
2022-12-27T05:51:50.073Z,99139.22
2022-12-27T05:54:16.934Z,99144.00
2022-12-27T05:56:43.965Z,99137.88
2022-12-27T05:59:11.426Z,99150.53
2022-12-27T06:01:38.496Z,99155.50
2022-12-27T06:04:05.355Z,99168.84
2022-12-27T06:06:33.656Z,99171.44
2022-12-27T06:09:00.371Z,99175.16
2022-12-27T06:11:27.409Z,99180.53
2022-12-27T06:13:54.369Z,99175.25
2022-12-27T06:16:21.601Z,99188.75
2022-12-27T06:18:48.325Z,99179.16
2022-12-27T06:21:17.462Z,99197.19
2022-12-27T06:23:47.116Z,99198.91
2022-12-27T06:26:18.343Z,99198.81
2022-12-27T06:28:45.140Z,99209.84
2022-12-27T06:31:12.232Z,99215.47
2022-12-27T06:33:39.007Z,99233.91
2022-12-27T06:36:10.186Z,99243.53
2022-12-27T06:38:37.040Z,99243.72
2022-12-27T06:41:05.067Z,99251.19
2022-12-27T06:43:31.845Z,99248.38
2022-12-27T06:46:00.003Z,99258.28
2022-12-27T06:48:26.975Z,99271.78
2022-12-27T06:50:54.161Z,99265.47
2022-12-27T06:53:21.367Z,99261.94
2022-12-27T06:55:48.417Z,99262.19
2022-12-27T06:58:15.250Z,99271.44
2022-12-27T07:00:42.486Z,99280.78
2022-12-27T07:03:09.292Z,99277.34
2022-12-27T07:05:36.633Z,99292.66
2022-12-27T07:08:03.562Z,99299.13
2022-12-27T07:10:30.760Z,99306.56
2022-12-27T07:12:57.731Z,99296.81
2022-12-27T07:15:24.800Z,99298.78
2022-12-27T07:17:51.560Z,99298.00
2022-12-27T07:20:18.816Z,99317.81
2022-12-27T07:22:45.592Z,99319.72
2022-12-27T07:25:12.625Z,99334.84
2022-12-27T07:27:39.420Z,99340.50
2022-12-27T07:30:07.235Z,99351.69
2022-12-27T07:32:34.009Z,99348.03
2022-12-27T07:35:01.119Z,99355.72
2022-12-27T07:37:27.871Z,99357.78
2022-12-27T07:39:54.891Z,99366.25
2022-12-27T07:42:21.594Z,99369.88
2022-12-27T07:44:48.845Z,99379.84
2022-12-27T07:47:15.585Z,99383.38
2022-12-27T07:49:42.635Z,99389.78
2022-12-27T07:52:09.371Z,99390.81
2022-12-27T07:54:36.450Z,99403.19
2022-12-27T07:57:03.199Z,99402.22
2022-12-27T07:59:30.258Z,99407.59
2022-12-27T08:02:06.306Z,99414.78
2022-12-27T08:04:35.331Z,99420.06
2022-12-27T08:07:12.277Z,99427.16
2022-12-27T08:09:39.796Z,99428.09
2022-12-27T08:12:07.447Z,99439.84
2022-12-27T08:14:34.584Z,99442.44
2022-12-27T08:17:27.360Z,99448.78
2022-12-27T08:19:54.804Z,99451.47
2022-12-27T08:22:22.055Z,99460.53
2022-12-27T08:24:49.405Z,99456.19
2022-12-27T08:27:23.250Z,99458.88
2022-12-27T08:29:50.328Z,99465.19
2022-12-27T08:32:17.071Z,99467.00
2022-12-27T08:34:44.126Z,99475.06
2022-12-27T08:37:10.857Z,99478.66
2022-12-27T08:39:37.900Z,99482.19
2022-12-27T08:42:04.699Z,99491.13
2022-12-27T08:44:31.794Z,99490.16
2022-12-27T08:46:59.550Z,99485.00
2022-12-27T08:49:26.684Z,99486.78
2022-12-27T08:51:53.423Z,99490.25
2022-12-27T08:54:20.497Z,99494.69
2022-12-27T08:56:47.313Z,99489.31
2022-12-27T08:59:14.323Z,99490.97
2022-12-27T09:01:41.208Z,99490.16
2022-12-27T09:04:08.384Z,99498.13
2022-12-27T09:06:35.169Z,99495.31
2022-12-27T09:09:02.197Z,99498.84
2022-12-27T09:11:31.122Z,99503.44
2022-12-27T09:13:59.326Z,99492.63
2022-12-27T09:16:29.458Z,99485.50
2022-12-27T09:18:57.695Z,99490.88
2022-12-27T09:21:26.663Z,99497.84
2022-12-27T09:23:54.419Z,99492.38
2022-12-27T09:26:23.036Z,99496.78
2022-12-27T09:28:50.270Z,99500.44
2022-12-27T09:31:17.803Z,99495.00
2022-12-27T09:33:45.061Z,99492.16
2022-12-27T09:36:16.404Z,99483.28
2022-12-27T09:38:43.850Z,99489.63
2022-12-27T09:42:11.680Z,99484.81
2022-12-27T09:44:22.931Z,99489.13
2022-12-27T09:47:14.424Z,99485.28
2022-12-27T09:49:50.832Z,99485.28
2022-12-27T09:52:40.032Z,99484.94
2022-12-27T09:55:19.860Z,99484.94
2022-12-27T09:57:46.778Z,99481.22
2022-12-27T10:00:34.329Z,99475.00
2022-12-27T10:03:05.613Z,99474.13
2022-12-27T10:05:34.436Z,99480.53
2022-12-27T10:08:13.348Z,99483.91
2022-12-27T10:10:41.865Z,99472.25
2022-12-27T10:13:11.709Z,99485.66
2022-12-27T10:16:01.061Z,99485.53
2022-12-27T10:19:03.510Z,99484.44
2022-12-27T10:21:30.677Z,99477.25
2022-12-27T10:24:11.522Z,99486.97
2022-12-27T10:26:38.852Z,99483.47
2022-12-27T10:29:19.068Z,99499.50
2022-12-27T10:31:46.182Z,99495.81
2022-12-27T10:34:15.119Z,99503.00
2022-12-27T10:36:42.302Z,99503.84
2022-12-27T10:39:29.145Z,99506.28
2022-12-27T10:41:57.756Z,99500.13
2022-12-27T10:44:24.527Z,99494.66
2022-12-27T10:46:55.985Z,99498.94
2022-12-27T10:49:29.600Z,99502.56
2022-12-27T10:52:20.412Z,99492.72
2022-12-27T10:54:54.457Z,99511.31
2022-12-27T10:57:33.484Z,99514.81
2022-12-27T11:00:16.610Z,99503.78
2022-12-27T11:02:57.345Z,99499.47
2022-12-27T11:05:29.430Z,99510.75
2022-12-27T11:07:56.687Z,99519.75
2022-12-27T11:10:25.505Z,99517.84
2022-12-27T11:13:03.567Z,99515.06
2022-12-27T11:15:34.444Z,99512.47
2022-12-27T11:18:19.910Z,99513.19
2022-12-27T11:20:49.107Z,99511.38
2022-12-27T11:23:17.324Z,99519.34
2022-12-27T11:25:53.019Z,99516.50
2022-12-27T11:28:23.173Z,99511.13
2022-12-27T11:30:56.331Z,99523.56
2022-12-27T11:33:32.358Z,99511.97
2022-12-27T11:35:59.178Z,99512.59
2022-12-27T11:38:30.219Z,99505.31
2022-12-27T11:41:09.887Z,99503.31
2022-12-27T11:44:00.882Z,99503.41
2022-12-27T11:46:30.659Z,99500.72
2022-12-27T11:48:58.787Z,99503.41
2022-12-27T11:51:37.652Z,99508.59
2022-12-27T11:54:32.674Z,99502.13
2022-12-27T11:57:11.417Z,99492.94
2022-12-27T11:59:41.577Z,99492.06
2022-12-27T12:02:34.093Z,99498.91
2022-12-27T12:05:16.640Z,99501.59
2022-12-27T12:08:09.312Z,99503.44
2022-12-27T12:10:36.680Z,99496.06
2022-12-27T12:13:42.156Z,99496.50
2022-12-27T12:16:31.396Z,99504.47
2022-12-27T12:19:35.814Z,99499.00
2022-12-27T12:22:06.008Z,99513.06
2022-12-27T12:25:09.689Z,99511.22
2022-12-27T12:27:47.591Z,99504.75
2022-12-27T12:30:38.003Z,99506.41
2022-12-27T12:33:14.250Z,99497.41
2022-12-27T12:35:46.610Z,99499.91
2022-12-27T12:38:27.031Z,99503.22
2022-12-27T12:41:15.712Z,99508.66
2022-12-27T12:43:56.889Z,99510.50
2022-12-27T12:46:38.565Z,99502.31
2022-12-27T12:49:33.487Z,99511.69
2022-12-27T12:52:03.304Z,99511.00
2022-12-27T12:54:42.568Z,99511.94
2022-12-27T12:57:09.362Z,99522.53
2022-12-27T13:00:09.304Z,99521.56
2022-12-27T13:03:04.170Z,99516.91
2022-12-27T13:05:52.063Z,99524.00
2022-12-27T13:08:29.460Z,99524.16
2022-12-27T13:11:13.204Z,99526.75
2022-12-27T13:13:55.495Z,99537.50
2022-12-27T13:16:29.246Z,99539.25
2022-12-27T13:19:17.760Z,99542.81
2022-12-27T13:22:09.227Z,99530.41
2022-12-27T13:24:36.014Z,99530.34
2022-12-27T13:27:13.255Z,99519.66
2022-12-27T13:29:52.715Z,99527.44
2022-12-27T13:32:29.903Z,99526.75
2022-12-27T13:35:19.993Z,99531.28
2022-12-27T13:38:12.209Z,99527.66
2022-12-27T13:40:51.172Z,99535.81
2022-12-27T13:43:30.554Z,99545.56
2022-12-27T13:46:43.455Z,99546.19
2022-12-27T13:49:19.759Z,99552.53
2022-12-27T13:51:48.131Z,99553.47
2022-12-27T13:54:39.607Z,99547.25
2022-12-27T13:57:14.331Z,99552.78
2022-12-27T14:00:09.153Z,99563.28
2022-12-27T14:02:39.261Z,99569.44
2022-12-27T14:05:25.489Z,99568.66
2022-12-27T14:08:04.273Z,99564.91
2022-12-27T14:10:55.300Z,99565.16
2022-12-27T14:13:29.342Z,99576.88
2022-12-27T14:16:11.939Z,99582.25
2022-12-27T14:19:03.546Z,99580.34
2022-12-27T14:21:45.803Z,99589.56
2022-12-27T14:24:49.957Z,99597.53
2022-12-27T14:27:38.897Z,99599.16
2022-12-27T14:30:14.452Z,99598.41
2022-12-27T14:32:49.595Z,99600.22
2022-12-27T14:35:35.075Z,99601.00
2022-12-27T14:38:02.063Z,99606.63
2022-12-27T14:40:55.100Z,99601.25
2022-12-27T14:43:40.865Z,99597.88
2022-12-27T14:46:31.901Z,99587.03
2022-12-27T14:49:33.909Z,99590.66
2022-12-27T14:52:13.133Z,99597.19
2022-12-27T14:54:49.185Z,99604.56
2022-12-27T14:57:22.051Z,99608.25
2022-12-27T15:00:12.416Z,99632.38
2022-12-27T15:02:51.344Z,99640.50
2022-12-27T15:05:30.767Z,99637.19
2022-12-27T15:08:06.860Z,99640.03
2022-12-27T15:10:43.258Z,99640.34
2022-12-27T15:13:19.398Z,99644.88
2022-12-27T15:15:52.760Z,99650.47
2022-12-27T15:18:37.971Z,99636.50
2022-12-27T15:21:22.740Z,99641.03
2022-12-27T15:24:03.794Z,99646.56
2022-12-27T15:26:45.576Z,99634.97
2022-12-27T15:29:21.565Z,99633.47
2022-12-27T15:32:04.806Z,99631.97
2022-12-27T15:34:47.314Z,99634.66
2022-12-27T15:37:45.569Z,99630.50
2022-12-27T15:41:26.495Z,99638.47
2022-12-27T15:47:52.821Z,99636.59
2022-12-27T15:50:24.387Z,99633.91
2022-12-27T15:52:53.582Z,99636.75
2022-12-27T15:55:42.942Z,99642.28
2022-12-27T15:58:43.905Z,99635.16
2022-12-27T16:01:23.974Z,99637.22
2022-12-27T16:03:59.039Z,99640.75
2022-12-27T16:07:11.016Z,99631.16
2022-12-27T16:09:46.669Z,99639.22
2022-12-27T16:12:14.069Z,99625.94
2022-12-27T16:14:42.252Z,99630.38
2022-12-27T16:17:24.785Z,99642.13
2022-12-27T16:20:08.382Z,99639.34
2022-12-27T16:22:40.281Z,99641.34
2022-12-27T16:25:24.143Z,99636.03
2022-12-27T16:28:05.213Z,99636.19
2022-12-27T16:31:14.715Z,99637.94
2022-12-27T16:33:41.912Z,99632.59
2022-12-27T16:36:11.717Z,99633.84
2022-12-27T16:38:46.800Z,99635.56
2022-12-27T16:41:22.701Z,99633.66
2022-12-27T16:44:02.142Z,99632.97
2022-12-27T16:46:47.513Z,99634.94
2022-12-27T16:49:14.702Z,99629.72
2022-12-27T16:52:00.664Z,99634.38
2022-12-27T16:54:44.089Z,99640.53
2022-12-27T16:57:29.053Z,99631.63
2022-12-27T16:59:59.254Z,99647.94
2022-12-27T17:02:42.240Z,99655.84
2022-12-27T17:05:15.588Z,99648.28
2022-12-27T17:07:43.456Z,99655.38
2022-12-27T17:10:30.185Z,99652.75
2022-12-27T17:12:59.737Z,99652.91
2022-12-27T17:15:27.402Z,99656.53
2022-12-27T17:17:55.775Z,99657.41
2022-12-27T17:20:24.024Z,99663.97
2022-12-27T17:22:52.661Z,99666.78
2022-12-27T17:25:22.872Z,99677.50
2022-12-27T17:28:04.943Z,99679.41
2022-12-27T17:30:44.211Z,99676.72
2022-12-27T17:33:37.597Z,99680.34
2022-12-27T17:36:16.842Z,99667.78
2022-12-27T17:38:49.555Z,99669.84
2022-12-27T17:41:45.884Z,99674.34
2022-12-27T17:44:40.314Z,99677.16
2022-12-27T17:47:39.906Z,99680.72
2022-12-27T17:50:13.010Z,99673.63
2022-12-27T17:52:58.839Z,99679.28
2022-12-27T17:55:45.780Z,99677.56
2022-12-27T17:58:14.456Z,99681.22
2022-12-27T18:00:57.365Z,99679.41
2022-12-27T18:03:32.718Z,99679.59
2022-12-27T18:05:59.589Z,99684.13
2022-12-27T18:08:29.592Z,99683.28
2022-12-27T18:10:57.375Z,99686.09
2022-12-27T18:13:25.721Z,99680.00
2022-12-27T18:15:52.834Z,99693.34
2022-12-27T18:18:33.407Z,99695.88
2022-12-27T18:21:01.855Z,99683.41
2022-12-27T18:23:28.980Z,99688.91
2022-12-27T18:26:16.031Z,99685.53
2022-12-27T18:28:43.384Z,99684.72
2022-12-27T18:31:29.727Z,99689.94
2022-12-27T18:33:57.982Z,99690.94
2022-12-27T18:36:30.483Z,99692.13
2022-12-27T18:38:59.625Z,99695.72
2022-12-27T18:41:26.632Z,99691.53
2022-12-27T18:43:59.500Z,99686.97
2022-12-27T18:46:36.429Z,99694.28
2022-12-27T18:49:03.732Z,99694.28
2022-12-27T18:51:35.105Z,99694.50
2022-12-27T18:54:02.374Z,99699.78
2022-12-27T18:56:32.572Z,99703.63
2022-12-27T18:59:05.841Z,99701.03
2022-12-27T19:01:41.019Z,99687.56
2022-12-27T19:04:14.666Z,99690.38
2022-12-27T19:06:42.580Z,99685.94
2022-12-27T19:09:14.274Z,99686.91
2022-12-27T19:11:41.185Z,99685.31
2022-12-27T19:14:12.015Z,99693.28
2022-12-27T19:16:38.842Z,99702.41
2022-12-27T19:19:08.520Z,99695.31
2022-12-27T19:21:38.972Z,99697.78
2022-12-27T19:24:38.698Z,99705.22
2022-12-27T19:27:16.826Z,99706.22
2022-12-27T19:29:51.097Z,99698.19
2022-12-27T19:32:23.200Z,99697.34
2022-12-27T19:34:52.092Z,99701.84
2022-12-27T19:37:19.401Z,99705.56
2022-12-27T19:39:47.135Z,99705.56
2022-12-27T19:42:16.507Z,99705.81
2022-12-27T19:44:43.658Z,99701.25
2022-12-27T19:47:12.793Z,99703.91
2022-12-27T19:49:42.625Z,99697.00
2022-12-27T19:52:16.874Z,99694.50
2022-12-27T19:54:43.996Z,99702.72
2022-12-27T19:57:12.488Z,99699.25
2022-12-27T19:59:40.005Z,99704.53
2022-12-27T20:02:07.401Z,99702.72
2022-12-27T20:04:35.032Z,99711.81
2022-12-27T20:07:02.077Z,99715.44
2022-12-27T20:09:44.074Z,99707.56
2022-12-27T20:12:12.016Z,99717.41
2022-12-27T20:14:39.303Z,99717.47
2022-12-27T20:17:06.200Z,99717.47
2022-12-27T20:19:33.772Z,99723.69
2022-12-27T20:22:00.902Z,99722.00
2022-12-27T20:24:28.781Z,99729.09
2022-12-27T20:26:58.995Z,99729.28
2022-12-27T20:29:27.540Z,99724.81
2022-12-27T20:31:57.280Z,99728.31
2022-12-27T20:34:24.807Z,99723.00
2022-12-27T20:36:55.512Z,99727.34
2022-12-27T20:39:22.891Z,99734.59
2022-12-27T20:41:49.716Z,99732.78
2022-12-27T20:44:16.971Z,99724.16
2022-12-27T20:46:44.409Z,99734.81
2022-12-27T20:49:12.211Z,99739.25
2022-12-27T20:51:42.292Z,99739.25
2022-12-27T20:54:10.354Z,99739.41
2022-12-27T20:56:37.127Z,99743.81
2022-12-27T20:59:04.511Z,99748.38
2022-12-27T21:01:31.845Z,99743.75
2022-12-27T21:03:59.093Z,99742.06
2022-12-27T21:06:27.450Z,99749.19
2022-12-27T21:08:57.547Z,99747.28
2022-12-27T21:11:27.891Z,99762.50
2022-12-27T21:13:55.077Z,99757.09
2022-12-27T21:16:23.400Z,99756.28
2022-12-27T21:18:50.615Z,99767.00
2022-12-27T21:21:19.889Z,99762.56
2022-12-27T21:23:47.370Z,99771.44
2022-12-27T21:26:19.584Z,99767.13
2022-12-27T21:28:46.962Z,99758.13
2022-12-27T21:31:14.723Z,99747.66
2022-12-27T21:33:42.153Z,99759.16
2022-12-27T21:36:16.020Z,99751.06
2022-12-27T21:38:43.217Z,99754.66
2022-12-27T21:41:18.238Z,99746.81
2022-12-27T21:43:45.350Z,99747.78
2022-12-27T21:46:18.588Z,99737.00
2022-12-27T21:48:46.056Z,99744.97
2022-12-27T21:51:14.289Z,99738.66
2022-12-27T21:53:41.614Z,99736.94
2022-12-27T21:56:08.554Z,99735.25
2022-12-27T21:58:36.736Z,99726.38
2022-12-27T22:01:14.578Z,99726.31
2022-12-27T22:03:43.432Z,99725.28
2022-12-27T22:06:16.396Z,99733.31
2022-12-27T22:08:44.544Z,99731.44
2022-12-27T22:11:11.355Z,99737.00
2022-12-27T22:13:38.579Z,99738.66
2022-12-27T22:16:06.928Z,99734.03
2022-12-27T22:18:37.720Z,99733.25
2022-12-27T22:21:06.016Z,99734.09
2022-12-27T22:23:37.570Z,99736.72
2022-12-27T22:26:05.223Z,99737.75
2022-12-27T22:28:32.332Z,99745.81
2022-12-27T22:30:59.196Z,99741.34
2022-12-27T22:33:26.319Z,99734.25
2022-12-27T22:35:53.125Z,99738.72
2022-12-27T22:38:20.228Z,99734.31
2022-12-27T22:40:47.125Z,99738.78
2022-12-27T22:43:14.378Z,99745.09
2022-12-27T22:45:42.442Z,99734.44
2022-12-27T22:48:09.691Z,99740.72
2022-12-27T22:50:37.856Z,99738.00
2022-12-27T22:53:05.098Z,99732.63
2022-12-27T22:55:31.870Z,99738.94
2022-12-27T22:57:58.961Z,99737.13
2022-12-27T23:00:25.699Z,99733.59
2022-12-27T23:02:52.779Z,99726.38
2022-12-27T23:05:19.657Z,99728.09
2022-12-27T23:08:04.061Z,99721.94
2022-12-27T23:10:33.585Z,99727.34
2022-12-27T23:13:00.651Z,99721.06
2022-12-27T23:15:27.478Z,99714.84
2022-12-27T23:17:54.547Z,99714.03
2022-12-27T23:20:21.315Z,99712.19
2022-12-27T23:22:48.455Z,99708.69
2022-12-27T23:25:15.236Z,99704.94
2022-12-27T23:27:42.255Z,99702.34
2022-12-27T23:30:09.766Z,99704.00
2022-12-27T23:32:36.827Z,99698.72
2022-12-27T23:35:03.755Z,99699.53
2022-12-27T23:37:30.758Z,99696.78
2022-12-27T23:39:57.463Z,99687.88
2022-12-27T23:42:24.565Z,99691.38
2022-12-27T23:44:52.245Z,99688.75
2022-12-27T23:47:19.394Z,99692.31
2022-12-27T23:49:46.203Z,99688.75
2022-12-27T23:52:13.290Z,99673.56
2022-12-27T23:54:40.053Z,99687.75
2022-12-27T23:57:22.287Z,99682.31
2022-12-27T23:59:51.244Z,99680.75
